EA3CY Weather Reports


Display with metric or nautical units.
time (UTC)temp
F
wind
direction
speed
MPH
gust
MPH
rain 1hr
in
rain 24hr
in
rain mn
in
humidity
%
barometer
mb
20260510101846 68 62 3.0 7.0 0.00 1.89 0.01 74 1014.5
20260510101337 68 105 3.0 8.0 0.00 1.89 0.01 74 1014.7
20260510095836 68 152 3.0 9.0 0.00 1.89 0.01 71 1014.6
20260510095329 69 128 4.0 9.0 0.00 1.89 0.01 71 1014.6
20260510094837 69 171 2.0 5.0 0.00 1.89 0.01 69 1014.5
20260510094333 68 194 0.0 0.0 0.00 1.89 0.01 70 1014.6
20260510093331 68 218 0.0 0.0 0.00 1.89 0.01 72 1014.6
20260510092835 67 218 0.0 0.0 0.00 1.89 0.01 73 1014.7
20260510092349 67 218 0.0 0.0 0.00 1.89 0.01 74 1014.7
20260510091832 67 218 0.0 0.0 0.00 1.89 0.01 73 1014.7
20260510091343 67 218 0.0 0.0 0.00 1.89 0.01 74 1014.7
20260510090847 67 218 0.0 0.0 0.00 1.89 0.01 74 1014.6
20260510090341 67 219 0.0 0.0 0.00 1.89 0.01 74 1014.6
20260510085839 67 219 0.0 0.0 0.00 1.89 0.01 73 1014.5
20260510085330 67 218 0.0 0.0 0.00 1.89 0.01 73 1014.6
20260510084329 66 221 0.0 0.0 0.00 1.89 0.01 73 1014.6
20260510083329 66 227 0.0 0.0 0.00 1.89 0.01 73 1014.6
20260510082837 65 227 0.0 0.0 0.00 1.89 0.01 73 1014.6
20260510082330 65 227 0.0 0.0 0.00 1.89 0.01 74 1014.5
20260510081837 65 234 0.0 0.0 0.00 1.89 0.01 74 1014.6
20260510081347 65 234 0.0 0.0 0.00 1.89 0.01 74 1014.6
20260510080831 65 234 0.0 0.0 0.00 1.89 0.01 74 1014.7
20260510080341 65 234 0.0 0.0 0.00 1.89 0.01 74 1014.7
20260510075840 65 234 0.0 0.0 0.00 1.89 0.01 74 1014.7
20260510075331 65 234 0.0 0.0 0.00 1.89 0.01 74 1014.7
20260510074835 64 235 0.0 0.0 0.00 1.89 0.01 75 1014.6
20260510071832 62 235 0.0 0.0 0.00 1.89 0.01 83 1014.6
20260510070833 62 235 0.0 0.0 0.00 1.89 0.01 82 1014.5
20260510070348 62 235 0.0 0.0 0.00 1.89 0.01 81 1014.5
20260510065843 61 286 0.0 0.0 0.00 1.89 0.01 82 1014.4
20260510065337 61 286 0.0 0.0 0.00 1.89 0.01 83 1014.3
20260510064844 61 287 0.0 0.0 0.00 1.89 0.01 83 1014.3
20260510064336 60 287 0.0 0.0 0.00 1.89 0.01 84 1014.2
20260510063336 59 287 0.0 4.0 0.00 1.89 0.01 85 1014.2
20260510062845 59 288 2.0 5.0 0.00 1.89 0.01 86 1014.3
20260510062337 59 290 1.0 5.0 0.00 1.89 0.01 87 1014.2
20260510061843 59 290 0.0 3.0 0.00 1.89 0.01 88 1014.2
20260510061333 58 292 0.0 3.0 0.00 1.89 0.01 89 1014.2
20260510060839 58 291 0.0 2.0 0.00 1.89 0.01 90 1014.1
20260510060350 57 288 0.0 2.0 0.00 1.89 0.01 90 1014.1
20260510055847 57 281 0.0 5.0 0.00 1.89 0.01 90 1014.1
20260510055337 57 281 0.0 5.0 0.00 1.89 0.01 90 1014.1
20260510054845 57 277 3.0 5.0 0.00 1.89 0.01 90 1014.1
20260510053843 56 290 2.0 6.0 0.00 1.89 0.01 91 1014.0
20260510053333 56 298 3.0 6.0 0.00 1.89 0.01 91 1014.0
20260510052838 56 283 2.0 5.0 0.00 1.89 0.01 91 1013.9
20260510052350 56 285 2.0 5.0 0.00 1.89 0.01 91 1014.0
20260510051836 56 293 1.0 3.0 0.00 1.89 0.01 92 1014.1
20260510051347 56 301 2.0 3.0 0.00 1.89 0.01 92 1014.0
20260510050341 56 317 0.0 0.0 0.00 1.89 0.01 92 1013.9
20260510045836 56 317 0.0 0.0 0.00 1.89 0.01 92 1013.9
20260510045330 56 318 0.0 0.0 0.00 1.89 0.01 92 1013.8
20260510044838 56 318 0.0 0.0 0.00 1.89 0.01 92 1013.9
20260510044333 56 317 0.0 0.0 0.00 1.89 0.01 92 1013.9
20260510043839 56 317 0.0 0.0 0.00 1.89 0.01 92 1013.9
20260510043331 56 317 0.0 0.0 0.00 1.89 0.01 92 1013.9
20260510042839 56 317 0.0 0.0 0.00 1.89 0.01 93 1014.0
20260510042331 56 317 0.0 0.0 0.00 1.89 0.01 92 1013.9
20260510040834 56 317 0.0 0.0 0.00 1.89 0.01 92 1013.9
20260510035337 57 317 0.0 0.0 0.00 1.89 0.01 92 1013.8
20260510034841 57 317 0.0 0.0 0.00 1.89 0.01 92 1013.8
20260510034332 57 317 0.0 0.0 0.00 1.89 0.01 92 1013.8
20260510033839 57 317 0.0 0.0 0.00 1.89 0.01 92 1013.9
20260510033350 57 317 0.0 0.0 0.00 1.89 0.01 93 1013.9
20260510032836 57 317 0.0 0.0 0.00 1.89 0.01 92 1013.9
20260510032348 57 317 0.0 0.0 0.00 1.89 0.01 93 1013.9
20260510031831 57 317 0.0 0.0 0.00 1.89 0.01 93 1013.9
20260510030347 57 317 0.0 0.0 0.04 1.89 0.01 93 1014.1
20260510025844 57 317 0.0 0.0 0.04 1.89 0.01 93 1014.0
20260510025335 57 317 0.0 0.0 0.04 1.89 0.01 93 1014.0
20260510024843 57 317 0.0 0.0 0.04 1.89 0.01 93 1014.0
20260510024336 57 317 0.0 0.0 0.04 1.89 0.01 93 1014.0
20260510023337 57 317 0.0 0.0 0.04 1.89 0.01 93 1014.1
20260510022842 57 317 0.0 0.0 0.04 1.89 0.01 93 1014.1
20260510022333 57 317 0.0 0.0 0.04 1.89 0.01 93 1014.1
20260510021840 57 317 0.0 0.0 0.04 1.89 0.01 93 1014.1
20260510021350 58 317 0.0 0.0 0.04 1.89 0.01 93 1014.2
20260510020833 58 317 0.0 0.0 0.04 1.89 0.01 93 1014.2
20260510020344 58 317 0.0 0.0 0.00 1.85 0.00 93 1014.2
20260510015843 58 317 0.0 0.0 0.00 1.85 0.00 93 1014.2
20260510015336 58 317 0.0 0.0 0.00 1.85 0.00 93 1014.0
20260510014336 58 317 0.0 0.0 0.00 1.85 0.00 93 1014.3
20260510013842 58 317 0.0 0.0 0.00 1.85 0.00 93 1014.3
20260510013333 58 317 0.0 0.0 0.00 1.85 0.00 93 1014.3
20260510012839 58 317 0.0 0.0 0.00 1.85 0.00 93 1014.3
20260510012330 58 317 0.0 0.0 0.00 1.85 0.00 93 1014.4
20260510011838 58 317 0.0 0.0 0.00 1.85 0.00 93 1014.5
20260510011350 58 317 0.0 0.0 0.00 1.85 0.00 93 1014.4
20260510010836 58 317 0.0 0.0 0.00 1.85 0.00 93 1014.5
20260510010347 58 317 0.0 0.0 0.00 1.85 0.00 93 1014.4
20260510005838 58 317 0.0 0.0 0.00 1.85 0.00 93 1014.4
20260510004838 58 317 0.0 0.0 0.00 1.85 0.00 94 1014.7
20260510002841 58 317 0.0 0.0 0.00 1.85 0.00 94 1014.7
20260510002333 58 317 0.0 0.0 0.00 1.85 0.00 94 1014.8
20260510001832 58 317 0.0 0.0 0.00 1.85 0.00 94 1014.7
20260510000832 58 317 0.0 0.0 0.00 1.85 0.00 94 1014.8
20260510000343 58 317 0.0 0.0 0.00 1.85 0.00 94 1014.9
20260509235840 58 317 0.0 0.0 0.00 1.85 0.00 94 1015.0
20260509235333 58 317 0.0 0.0 0.00 1.85 0.00 94 1015.0
20260509234332 58 317 0.0 0.0 0.00 1.85 0.00 94 1014.9
20260509233839 58 317 0.0 0.0 0.00 1.85 0.00 94 1014.9
20260509233350 58 317 0.0 0.0 0.00 1.85 0.00 94 1014.9
20260509232833 58 317 0.0 0.0 0.00 1.85 0.00 94 1014.9
20260509232329 58 317 0.0 0.0 0.00 1.85 0.00 94 1015.0
20260509231838 58 317 0.0 0.0 0.00 1.85 0.00 93 1015.0
20260509231329 58 317 0.0 0.0 0.00 1.85 0.00 93 1015.1
20260509230835 59 317 0.0 0.0 0.00 1.85 0.00 93 1015.1
20260509230330 59 317 0.0 0.0 0.00 1.85 0.00 93 1015.1
20260509225845 59 317 0.0 0.0 0.00 1.85 0.00 93 1015.2
20260509224846 59 317 0.0 0.0 0.00 1.85 0.00 93 1015.2
20260509224336 59 317 0.0 0.0 0.00 1.85 0.00 93 1015.2
20260509223840 59 317 0.0 0.0 0.00 1.85 0.00 93 1015.2
20260509223331 59 317 0.0 0.0 0.00 1.85 0.00 93 1015.2
20260509222836 59 317 0.0 0.0 0.00 1.85 0.00 93 1015.2
20260509222330 59 317 0.0 0.0 0.00 1.85 0.00 93 1015.1
20260509221330 59 317 0.0 0.0 0.00 1.85 0.00 93 1015.1
20260509220348 59 317 0.0 0.0 0.00 1.85 0.00 93 1015.1
20260509215333 59 317 0.0 0.0 0.00 1.85 0.37 93 1015.1
20260509214838 59 317 0.0 0.0 0.00 1.85 0.37 93 1015.1
20260509214331 59 317 0.0 0.0 0.00 1.85 0.37 93 1015.1
20260509213334 59 317 0.0 0.0 0.00 1.85 0.37 93 1015.3
20260509212840 59 317 0.0 0.0 0.00 1.85 0.37 93 1015.3
20260509212332 59 317 0.0 0.0 0.00 1.85 0.37 93 1015.3
20260509211838 59 317 0.0 0.0 0.00 1.85 0.37 93 1015.2
20260509211329 59 317 0.0 0.0 0.00 1.85 0.37 92 1015.2
20260509210329 59 317 0.0 0.0 0.00 1.85 0.37 93 1015.3
20260509205845 59 317 0.0 0.0 0.00 1.85 0.37 92 1015.2
20260509205338 59 317 0.0 0.0 0.00 1.85 0.37 92 1015.2
20260509204843 59 317 0.0 0.0 0.00 1.85 0.37 92 1015.2
20260509203844 59 317 0.0 0.0 0.00 1.85 0.37 92 1015.0
20260509203336 59 317 0.0 0.0 0.00 1.85 0.37 92 1014.9
20260509202842 59 317 0.0 0.0 0.00 1.85 0.37 92 1014.8
20260509202333 59 317 0.0 0.0 0.00 1.85 0.37 92 1014.8
20260509201837 59 317 0.0 0.0 0.00 1.85 0.37 92 1014.8
20260509201329 59 317 0.0 0.0 0.00 1.85 0.37 91 1014.8
20260509200831 59 317 0.0 0.0 0.00 1.85 0.37 91 1014.8
20260509200342 59 318 0.0 0.0 0.00 1.85 0.37 91 1014.7
20260509195333 60 35 0.0 0.0 0.00 1.85 0.37 91 1014.4
20260509194838 60 35 0.0 0.0 0.00 1.85 0.37 91 1014.3
20260509193836 60 35 0.0 0.0 0.00 1.85 0.37 90 1014.0
20260509193329 60 35 0.0 0.0 0.00 1.85 0.37 90 1014.0
20260509192833 60 35 0.0 0.0 0.00 1.85 0.37 90 1013.9
20260509192343 61 35 0.0 0.0 0.00 1.85 0.37 90 1013.8
20260509191832 61 35 0.0 0.0 0.00 1.85 0.37 90 1013.8
20260509191343 61 35 0.0 0.0 0.00 1.85 0.37 90 1013.7
20260509190829 61 35 0.0 0.0 0.00 1.85 0.37 89 1013.6
20260509190341 61 35 0.0 0.0 0.00 1.85 0.37 90 1013.4
20260509185838 61 35 0.0 0.0 0.00 1.85 0.37 90 1013.4
20260509185335 61 35 0.0 0.0 0.00 1.85 0.37 89 1013.3
20260509184842 61 35 0.0 0.0 0.00 1.85 0.37 89 1013.3
20260509184332 62 35 0.0 0.0 0.00 1.85 0.37 89 1013.3
20260509183837 62 35 0.0 0.0 0.00 1.85 0.37 89 1013.3
20260509182836 62 35 0.0 0.0 0.00 1.85 0.37 89 1013.4
20260509180838 62 35 0.0 0.0 0.00 1.85 0.37 89 1013.1
20260509180330 62 34 0.0 0.0 0.00 1.85 0.37 89 1013.1
20260509175847 62 34 0.0 0.0 0.00 1.85 0.37 89 1013.0
20260509175340 62 34 0.0 0.0 0.00 1.85 0.37 88 1013.0
20260509174845 62 34 0.0 2.0 0.00 1.85 0.37 89 1013.0
20260509174337 62 35 0.0 3.0 0.00 1.85 0.37 89 1012.9
20260509173844 62 35 1.0 6.0 0.00 1.85 0.37 89 1012.9
20260509173333 62 34 1.0 6.0 0.00 1.85 0.37 89 1012.8
20260509172837 62 52 1.0 4.0 0.00 1.85 0.37 88 1012.8
20260509172331 62 57 2.0 4.0 0.00 1.85 0.37 88 1012.7
20260509170838 62 48 0.0 0.0 0.00 1.85 0.37 89 1012.7
20260509170331 62 57 0.0 3.0 0.00 1.85 0.37 89 1012.7
20260509165339 62 28 0.0 3.0 0.00 1.85 0.37 90 1012.5
20260509164340 62 40 0.0 3.0 0.00 1.85 0.37 91 1012.5
20260509163342 61 44 1.0 5.0 0.00 1.85 0.37 91 1012.4
20260509162848 61 44 2.0 5.0 0.00 1.85 0.37 91 1012.4
20260509162338 61 34 1.0 5.0 0.00 1.85 0.37 92 1012.4
20260509161844 61 65 2.0 6.0 0.00 1.85 0.37 93 1012.3
20260509161335 60 59 2.0 10.0 0.00 1.85 0.37 93 1012.3
20260509160840 60 28 3.0 10.0 0.00 1.85 0.37 93 1012.3
20260509160331 61 45 3.0 7.0 0.00 1.85 0.37 93 1012.2
20260509155843 60 48 4.0 8.0 0.00 1.85 0.37 94 1012.1
20260509155334 60 63 3.0 11.0 0.04 1.85 0.37 94 1012.2
20260509154839 60 30 6.0 11.0 0.04 1.85 0.37 94 1012.0
20260509154331 60 47 4.0 9.0 0.04 1.85 0.37 94 1011.9
20260509153838 61 30 3.0 11.0 0.04 1.85 0.37 94 1011.7
20260509153330 61 26 3.0 12.0 0.08 1.85 0.37 94 1011.6
20260509152834 61 78 7.0 12.0 0.08 1.85 0.37 93 1011.5
20260509152346 61 65 6.0 12.0 0.12 1.85 0.37 93 1011.9
20260509151832 62 69 5.0 8.0 0.20 1.85 0.37 94 1012.5
20260509151345 62 82 3.0 5.0 0.31 1.85 0.37 94 1012.9
20260509150832 62 53 1.0 3.0 0.43 1.85 0.37 94 1013.1
20260509145844 62 275 0.0 1.0 0.59 1.85 0.37 94 1013.5
20260509145334 62 275 0.0 1.0 0.59 1.81 0.36 93 1013.7
20260509144841 62 275 0.0 2.0 0.63 1.81 0.36 93 1013.8
20260509144331 62 275 1.0 2.0 0.67 1.81 0.36 93 1013.8
20260509143839 62 279 0.0 2.0 0.67 1.81 0.36 93 1013.8
20260509143331 61 278 0.0 2.0 0.67 1.77 0.35 93 1013.8
20260509142837 62 277 1.0 2.0 0.71 1.77 0.35 93 1013.9
20260509142332 62 214 0.0 1.0 0.67 1.69 0.34 93 1014.0
20260509141330 62 213 0.0 1.0 0.51 1.54 0.31 92 1014.3
20260509140836 62 213 0.0 3.0 0.39 1.42 0.28 92 1014.4
20260509140346 62 213 1.0 7.0 0.31 1.34 0.27 92 1014.5
20260509135838 62 213 4.0 7.0 0.24 1.26 0.25 92 1014.6
20260509134840 62 217 1.0 4.0 0.16 1.18 0.24 91 1014.4
20260509134333 62 269 1.0 2.0 0.12 1.14 0.23 91 1014.3
20260509133840 62 92 0.0 1.0 0.08 1.10 0.22 91 1014.1
20260509133331 62 92 0.0 1.0 0.08 1.10 0.22 91 1014.1
20260509132838 62 92 0.0 1.0 0.04 1.06 0.21 91 1014.0
20260509132332 62 92 0.0 3.0 0.04 1.02 0.20 91 1013.8
20260509131837 62 92 0.0 3.0 0.04 1.02 0.20 91 1013.6
20260509130836 62 63 1.0 2.0 0.12 1.02 0.20 91 1013.3
20260509130346 62 59 0.0 3.0 0.16 1.02 0.20 91 1013.1
20260509125840 61 58 1.0 6.0 0.24 1.02 0.20 92 1012.8
20260509124332 61 7 6.0 12.0 0.47 1.02 0.20 92 1012.0
20260509123837 61 7 8.0 12.0 0.55 1.02 0.20 93 1011.9
20260509123348 61 35 5.0 11.0 0.67 1.02 0.20 92 1012.3
20260509122832 61 30 5.0 13.0 0.75 1.02 0.20 93 1012.7
20260509122343 61 32 7.0 13.0 0.75 0.98 0.20 93 1012.8
20260509121828 61 44 7.0 12.0 0.79 0.98 0.20 93 1013.0
20260509121340 61 36 6.0 15.0 0.79 0.94 0.19 93 1013.1
20260509120846 61 60 5.0 15.0 0.79 0.91 0.18 93 1013.0
20260509120339 61 31 5.0 12.0 0.79 0.87 0.17 93 1012.9
20260509115837 61 53 3.0 12.0 0.71 0.79 0.16 92 1012.8
20260509115330 62 11 4.0 12.0 0.67 0.71 0.14 92 1012.9
20260509114834 62 26 4.0 9.0 0.55 0.59 0.12 92 1013.3
20260509114345 62 23 5.0 8.0 0.55 0.55 0.11 92 1013.5
20260509113848 62 41 3.0 8.0 0.47 0.47 0.09 92 1013.7
20260509113339 62 36 4.0 9.0 0.35 0.35 0.07 92 1013.9
20260509112847 62 77 4.0 9.0 0.28 0.28 0.06 91 1013.9
20260509112339 62 60 4.0 9.0 0.24 0.24 0.05 91 1013.9
20260509111845 63 103 3.0 10.0 0.20 0.20 0.04 90 1013.8
20260509110845 63 66 5.0 9.0 0.12 0.12 0.02 89 1013.6
20260509110336 63 56 4.0 8.0 0.08 0.08 0.02 89 1013.5
20260509105835 63 54 4.0 9.0 0.08 0.08 0.02 89 1013.4
20260509105346 63 53 4.0 11.0 0.04 0.04 0.01 88 1013.3
20260509104835 64 84 5.0 11.0 0.04 0.04 0.01 88 1013.4
20260509104345 64 55 6.0 11.0 0.00 0.00 0.00 87 1013.5
20260509103849 64 69 4.0 8.0 0.00 0.00 0.00 87 1013.5
20260509102831 64 113 7.0 13.0 0.00 0.00 0.00 87 1013.8
20260509102342 64 67 4.0 11.0 0.00 0.00 0.00 87 1013.9